Eviapetrol II — SY6858 — position and weather

sailwx.info

Track history (hours):
 
Tides and Currents Weather Stations Pressure Air Temp Water Temp Dewpoint Dewpoint Depression Visibility Wind Speed Wind Dir Waves Ship Positions

Eviapetrol II

Last reported at 2017-Mar-23 11:32 UTC. Time now 2017-Mar-23 12:32 UTC.
Position N 40°23' E 025°19'.

Length 78 m; draft 5.2 m.

Type: Tanker. MMSI: 240493000.

Date/timePositionNaut miles runAvg speedWind from/ knotsBaromVisibWave heightAir tempDewpointWater temp
2017-Mar-23 11:32N 40°23' E 025°19'10 9.4
2017-Mar-23 10:26N 40°14' E 025°12'9 8.6
2017-Mar-23 09:26N 40°07' E 025°06'128 8.6
2017-Mar-22 18:33N 38°01' E 024°37'10 9.6
2017-Mar-22 17:33N 37°53' E 024°30'10 9.8
2017-Mar-22 16:33N 37°47' E 024°20'28 8.4
2017-Mar-22 13:11N 37°39' E 023°46'5 8.5
2017-Mar-22 12:33N 37°43' E 023°41'13 9.6
2017-Mar-22 11:12N 37°55' E 023°36'5 7.9
2017-Mar-22 10:30N 37°60' E 023°33'3 0.1
2017-Mar-21 14:31N 38°02' E 023°31'2 0.9
2017-Mar-21 12:33N 38°01' E 023°33'7 6.4
2017-Mar-21 11:31N 37°55' E 023°37'9 9.9
2017-Mar-21 10:34N 37°47' E 023°42'14 9.9
2017-Mar-21 09:08N 37°38' E 023°56'  
2017-Mar-17 18:19N 37°10' E 025°48'19 8.9
2017-Mar-17 16:11N 37°15' E 025°25'6 9.6
2017-Mar-17 15:34N 37°16' E 025°17'20 9.9
2017-Mar-17 13:33N 37°21' E 024°53'60 9.8
2017-Mar-17 07:27N 37°41' E 023°42'910.4
2017-Mar-17 06:33N 37°49' E 023°37'8 8.4
2017-Mar-17 05:33N 37°57' E 023°34'5 0.2
2017-Mar-16 07:09N 38°02' E 023°36'3 4.8
2017-Mar-16 06:34N 37°60' E 023°33'5 5.3
2017-Mar-16 05:33N 37°55' E 023°37'8 7.8
2017-Mar-16 04:33N 37°48' E 023°41'73 8.0
2017-Mar-15 19:24N 37°25' E 025°08'7 8.7
2017-Mar-15 18:33N 37°21' E 025°15'1010.4
2017-Mar-15 17:33N 37°24' E 025°28'  
Track history (hours):
 
Tides and Currents Weather Stations Pressure Air Temp Water Temp Dewpoint Dewpoint Depression Visibility Wind Speed Wind Dir Waves Ship Positions

Eviapetrol II

Last reported at 2017-Mar-23 11:32 UTC. Time now 2017-Mar-23 12:32 UTC.
Position N 40°23' E 025°19'.

Length 78 m; draft 5.2 m.

Type: Tanker. MMSI: 240493000.

Date/timePositionNaut miles runAvg speedWind from/ knotsBaromVisibWave heightAir tempDewpointWater temp
2017-Mar-23 11:32N 40°23' E 025°19'10 9.4
2017-Mar-23 10:26N 40°14' E 025°12'9 8.6
2017-Mar-23 09:26N 40°07' E 025°06'128 8.6
2017-Mar-22 18:33N 38°01' E 024°37'10 9.6
2017-Mar-22 17:33N 37°53' E 024°30'10 9.8
2017-Mar-22 16:33N 37°47' E 024°20'28 8.4
2017-Mar-22 13:11N 37°39' E 023°46'5 8.5
2017-Mar-22 12:33N 37°43' E 023°41'13 9.6
2017-Mar-22 11:12N 37°55' E 023°36'5 7.9
2017-Mar-22 10:30N 37°60' E 023°33'3 0.1
2017-Mar-21 14:31N 38°02' E 023°31'2 0.9
2017-Mar-21 12:33N 38°01' E 023°33'7 6.4
2017-Mar-21 11:31N 37°55' E 023°37'9 9.9
2017-Mar-21 10:34N 37°47' E 023°42'14 9.9
2017-Mar-21 09:08N 37°38' E 023°56'  
2017-Mar-17 18:19N 37°10' E 025°48'19 8.9
2017-Mar-17 16:11N 37°15' E 025°25'6 9.6
2017-Mar-17 15:34N 37°16' E 025°17'20 9.9
2017-Mar-17 13:33N 37°21' E 024°53'60 9.8
2017-Mar-17 07:27N 37°41' E 023°42'910.4
2017-Mar-17 06:33N 37°49' E 023°37'8 8.4
2017-Mar-17 05:33N 37°57' E 023°34'5 0.2
2017-Mar-16 07:09N 38°02' E 023°36'3 4.8
2017-Mar-16 06:34N 37°60' E 023°33'5 5.3
2017-Mar-16 05:33N 37°55' E 023°37'8 7.8
2017-Mar-16 04:33N 37°48' E 023°41'73 8.0
2017-Mar-15 19:24N 37°25' E 025°08'7 8.7
2017-Mar-15 18:33N 37°21' E 025°15'1010.4
2017-Mar-15 17:33N 37°24' E 025°28'  

Dump ship's entire track history